Dirección General De Aeronáutica Civil

Dirección Meteorológica de Chile - Servicios Climáticos

Informe General de Control de Calidad de la Estación

Listado de niveles de control de calidad para algunos parámetros
Estación Rancagua (340045)
Fecha de Revisión de los datos :

Elementos

Registros Niveles de Control Total
Nivel 0 Nivel 1 Nivel 2 Nivel 3 Errores Porcentaje
01 Temperatura del Aire Seco 197.257 0 . 188 0.10 % 0 . 0 . 188 0.10 %
02 Temperatura de Rocío 173.152 2 0.00 % 0 . 0 . 0 . 2 0.00 %
03 Humedad Relativa del Aire 169.326 0 . 0 . 0 . 0 . 0 0.00 %
04 Temperatura Máxima PM 10.156 0 . 0 . 69 0.68 % 0 . 69 0.68 %
05 Temperatura Mínima AM 10.858 0 . 0 . 39 0.36 % 0 . 39 0.36 %
06 Viento a 10 m. de Altura 199.429 7 0.00 % 54 0.03 % 24 0.01 % 0 . 85 0.04 %
07 Agua Caida, Acumulada 6 Horas 30.208 0 . 0 . 0 . 0 . 0 0.00 %
08 Presión Atm. a Nivel de Estación (QFE) 76.419 0 . 0 . 0 . 0 . 0 0.00 %
09 Presión Atm. a Nivel Medio del Mar (QFF) 126.710 6 0.00 % 0 . 0 . 0 . 6 0.00 %
10 Presión Atm. Estándar OACI (QNH) 104.634 0 . 0 . 0 . 0 . 0 0.00 %
11 Tiempo Pasado Sinóptico 24.795 0 . 0 . 0 . 0 . 0 0.00 %
12 Tiempo Presente Sinóptico 98.774 0 . 32 0.03 % 0 . 0 . 32 0.03 %

Totales

1.221.718 . 0.0012 % . 0.0224 % . 0.0108 % . 0.0000 % 421 0.0345 %

Detalle de Errores Encontrados

Nivel Fecha del Dato Descripción Información Error Fecha Ingreso
0 1960-04-20 15:00:00 qff (Presión a nivel del Mar) debe ser numérico, entre 300 y 1100 111.6 2023-03-20 13:08:00
0 1960-04-21 18:00:00 qff (Presión a nivel del Mar) debe ser numérico, entre 300 y 1100 101.8 2023-03-20 13:12:00
0 1961-08-02 19:00:00 qff (Presión a nivel del Mar) debe ser numérico, entre 300 y 1100 101.7 2023-03-03 13:35:00
0 1962-05-17 16:00:00 qff (Presión a nivel del Mar) debe ser numérico, entre 300 y 1100 101.1 2023-01-09 18:23:00
0 1963-01-14 21:00:00 qff (Presión a nivel del Mar) debe ser numérico, entre 300 y 1100 101.4 2022-10-28 13:39:00
0 1963-08-25 14:00:00 qff (Presión a nivel del Mar) debe ser numérico, entre 300 y 1100 101.9 2022-11-25 14:17:00
0 1961-08-27 23:00:00 ff (Intensidad del Viento) debe ser numerico, entre 0 y 70 kt. 140 2023-03-13 13:10:00
0 1965-07-03 15:00:00 ff (Intensidad del Viento) debe ser numerico, entre 0 y 70 kt. 90 2023-03-10 15:27:00
0 1969-07-01 22:00:00 ff (Intensidad del Viento) debe ser numerico, entre 0 y 70 kt. 96 2022-09-27 19:04:00
0 1971-02-06 00:00:00 ff (Intensidad del Viento) debe ser numerico, entre 0 y 70 kt. 98 2022-10-07 18:54:00
0 1972-08-29 15:00:00 ff (Intensidad del Viento) debe ser numerico, entre 0 y 70 kt. 90 2022-11-29 15:27:00
0 2008-05-08 16:00:00 ff (Intensidad del Viento) debe ser numerico, entre 0 y 70 kt. 74 2023-10-02 19:57:00
0 2013-10-07 15:00:00 ff (Intensidad del Viento) debe ser numerico, entre 0 y 70 kt. 80 2023-11-03 19:27:00
0 1961-06-01 16:00:00 Td (Temperatura Del Punto de Rocio) debe ser numérico, entre -50.0 y 50.0 89.0
0 2018-06-22 16:10:00 Td (Temperatura Del Punto de Rocio) debe ser numérico, entre -50.0 y 50.0 82.0
Errores del Nivel 15
Nivel Fecha del Dato Descripción Información Error Fecha Ingreso
1 1951-02-28 14:00:00 Viento calma fue mal ingresado. dd = 220 - ff = 0 2023-04-06 15:41:00
1 1951-04-05 23:00:00 Viento calma fue mal ingresado. dd = 0 - ff = 10 2023-05-09 15:37:00
1 1951-07-03 17:00:00 Viento calma fue mal ingresado. dd = 90 - ff = 0 2023-04-13 14:46:00
1 1951-09-06 20:00:00 Viento calma fue mal ingresado. dd = 220 - ff = 0 2023-04-19 15:47:00
1 1951-11-27 18:00:00 Viento calma fue mal ingresado. dd = 180 - ff = 0 2023-04-25 19:25:00
1 1952-03-16 15:00:00 Viento calma fue mal ingresado. dd = 0 - ff = 1 2023-05-02 20:35:00
1 1952-04-03 14:00:00 Viento calma fue mal ingresado. dd = 0 - ff = 2 2023-05-04 15:19:00
1 1952-04-06 14:00:00 Viento calma fue mal ingresado. dd = 0 - ff = 8 2023-05-04 15:27:00
1 1952-04-09 13:00:00 Viento calma fue mal ingresado. dd = 0 - ff = 2 2023-05-04 16:12:00
1 1952-05-19 14:00:00 ff < 19kt y ((ww >= 31 y ww <= 35) o (ww == 37 o ww == 39 o ww >= 98))) 2023-05-05 17:52:00
1 1952-07-10 19:00:00 Viento calma fue mal ingresado. dd = 0 - ff = 2 2023-05-09 18:18:00
1 1952-07-10 21:00:00 Viento calma fue mal ingresado. dd = 0 - ff = 2 2023-05-09 18:18:00
1 1952-07-10 22:00:00 Viento calma fue mal ingresado. dd = 0 - ff = 2 2023-05-09 18:18:00
1 1952-07-27 15:00:00 Viento calma fue mal ingresado. dd = 0 - ff = 2 2023-05-10 14:23:00
1 1952-09-21 14:00:00 ff < 19kt y ((ww >= 31 y ww <= 35) o (ww == 37 o ww == 39 o ww >= 98))) 2023-05-11 19:18:00
1 1952-11-22 11:00:00 Viento calma fue mal ingresado. dd = 0 - ff = 2 2023-05-15 17:09:00
1 1952-12-02 16:00:00 Viento calma fue mal ingresado. dd = 220 - ff = 0 2023-05-15 21:29:00
1 1955-06-07 15:00:00 Viento calma fue mal ingresado. dd = 180 - ff = 0 2023-04-12 14:08:00
1 1955-10-01 13:00:00 Viento calma fue mal ingresado. dd = 40 - ff = 0 2023-04-14 15:31:00
1 1960-03-01 14:00:00 Viento calma fue mal ingresado. dd = 180 - ff = 0 2023-03-08 20:17:00
1 1960-04-12 23:00:00 Viento calma fue mal ingresado. dd = 180 - ff = 0 2023-03-10 15:05:00
1 1961-06-08 18:00:00 Viento calma fue mal ingresado. dd = 180 - ff = 0 2023-02-28 13:49:00
1 1961-08-31 16:00:00 Viento calma fue mal ingresado. dd = 0 - ff = 2 2023-03-13 14:27:00
1 1962-06-21 16:00:00 Viento calma fue mal ingresado. dd = 20 - ff = 0 2023-01-11 12:54:00
1 1962-10-22 16:00:00 ff < 19kt y ((ww >= 31 y ww <= 35) o (ww == 37 o ww == 39 o ww >= 98))) 2023-01-18 15:50:00
1 1967-03-28 00:00:00 Viento calma fue mal ingresado. dd = 180 - ff = 0 2023-02-02 18:44:00
1 1968-02-01 12:00:00 Viento calma fue mal ingresado. dd = 0 - ff = 5 2022-10-13 18:24:00
1 1969-08-12 13:00:00 Viento calma fue mal ingresado. dd = 0 - ff = 3 2022-09-29 17:51:00
1 1969-08-28 23:00:00 Viento calma fue mal ingresado. dd = 0 - ff = 6 2022-09-30 15:52:00
1 1969-09-22 14:00:00 Viento calma fue mal ingresado. dd = 0 - ff = 2 2022-10-03 16:35:00
1 1970-02-10 12:00:00 Viento calma fue mal ingresado. dd = 0 - ff = 4 2022-09-02 17:54:00
1 1970-03-13 00:00:00 Viento calma fue mal ingresado. dd = 180 - ff = 0 2022-09-06 13:54:00
1 1970-06-21 14:00:00 Viento calma fue mal ingresado. dd = 0 - ff = 2 2022-09-27 19:11:00
1 1971-04-27 14:00:00 No se informa dirección del Viento (dd), pero si una fuerza y el viento no es variable 2022-11-02 14:35:00
1 1971-07-30 00:00:00 Viento calma fue mal ingresado. dd = 220 - ff = 0 2022-10-19 17:01:00
1 1972-01-25 13:00:00 Viento calma fue mal ingresado. dd = 100 - ff = 0 2022-12-06 14:01:00
1 1972-02-14 14:00:00 No se informa intensidad del Viento (ff) , pero si una dirección 2022-12-06 18:29:00
1 1973-04-16 14:00:00 Viento calma fue mal ingresado. dd = 60 - ff = 0 2023-01-17 19:55:00
1 1973-11-10 22:00:00 ff < 19kt y ((ww >= 31 y ww <= 35) o (ww == 37 o ww == 39 o ww >= 98))) 2023-02-22 19:03:00
1 1975-05-28 17:00:00 Viento calma fue mal ingresado. dd = 90 - ff = 0 2023-04-17 15:21:00
1 2007-04-18 20:00:00 No se informa dirección del Viento (dd), pero si una fuerza y el viento no es variable 2023-09-01 17:15:00
1 2007-05-03 18:00:00 No se informa dirección del Viento (dd), pero si una fuerza y el viento no es variable 2023-09-11 14:01:00
1 2008-01-08 18:00:00 Viento calma fue mal ingresado. dd = 170 - ff = 0 2023-09-28 18:35:00
1 2008-01-08 19:00:00 Viento calma fue mal ingresado. dd = 180 - ff = 0 2023-09-28 18:35:00
1 2008-05-08 14:00:00 No se informa dirección del Viento (dd), pero si una fuerza y el viento no es variable 2023-10-02 19:56:00
1 2008-08-28 19:00:00 No se informa dirección del Viento (dd), pero si una fuerza y el viento no es variable 2023-10-05 14:33:00
1 2008-11-03 13:00:00 No se informa dirección del Viento (dd), pero si una fuerza y el viento no es variable 2023-10-06 13:09:00
1 2008-11-25 19:00:00 No se informa dirección del Viento (dd), pero si una fuerza y el viento no es variable 2023-10-06 18:54:00
1 2010-06-21 13:00:00 Viento calma fue mal ingresado. dd = 180 - ff = 0 2023-10-12 18:52:00
1 2010-06-22 18:00:00 No se informa dirección del Viento (dd), pero si una fuerza y el viento no es variable 2023-10-12 18:54:00
1 2010-11-18 14:00:00 No se informa dirección del Viento (dd), pero si una fuerza y el viento no es variable 2023-10-16 18:59:00
1 2013-09-10 17:00:00 No se informa dirección del Viento (dd), pero si una fuerza y el viento no es variable 2023-11-02 19:46:00
1 2013-10-28 13:00:00 Viento calma fue mal ingresado. dd = 0 - ff = 10 2023-11-06 15:30:00
1 2013-10-28 14:00:00 Viento calma fue mal ingresado. dd = 330 - ff = 0 2023-11-06 15:30:00
1 1952-04-18 16:00:00 ts > 5.0 y ((ww >= 70 y ww <= 79) || (ww >= 85 y ww <= 88))) 85 2023-05-04 19:09:00
1 1952-08-16 12:00:00 (ts - td > 5.0) y ((ww >= 40 y ww <= 49)) 47 2023-05-10 19:37:00
1 1952-10-06 20:00:00 ts > 5.0 y ((ww >= 70 y ww <= 79) || (ww >= 85 y ww <= 88))) 88 2023-05-11 21:20:00
1 1954-06-12 17:00:00 ts > 5.0 y ((ww >= 70 y ww <= 79) || (ww >= 85 y ww <= 88))) 87 2023-02-28 17:42:00
1 1956-06-08 17:00:00 ts > 3.0 y ( (ww >= 48 y ww <= 49) o (ww >= 56 y ww <= 57) o (ww >=66 y ww <= 67)) 56 2023-03-14 13:49:00
1 1956-08-15 20:00:00 ts > 5.0 y ((ww >= 70 y ww <= 79) || (ww >= 85 y ww <= 88))) 87 2023-03-20 13:34:00
1 1961-04-30 16:00:00 (ts - td > 5.0) y ((ww >= 40 y ww <= 49)) 40 2023-02-23 19:30:00
1 1961-04-30 17:00:00 (ts - td > 5.0) y ((ww >= 40 y ww <= 49)) 40 2023-02-23 19:30:00
1 1962-05-16 11:00:00 (ts - td > 5.0) y ((ww >= 40 y ww <= 49)) 46 2023-01-09 17:45:00
1 1962-07-18 12:00:00 (ts - td > 5.0) y ((ww >= 40 y ww <= 49)) 40 2023-01-12 19:10:00
1 1966-08-02 19:00:00 ts > 5.0 y ((ww >= 70 y ww <= 79) || (ww >= 85 y ww <= 88))) 88 2022-10-21 17:21:00
1 1968-09-05 17:00:00 (ts - td > 5.0) y ((ww >= 40 y ww <= 49)) 41 2022-11-21 20:10:00
1 1968-09-11 00:00:00 (ts - td > 5.0) y ((ww >= 40 y ww <= 49)) 41 2022-11-22 19:03:00
1 1969-07-07 14:00:00 (ts - td > 5.0) y ((ww >= 40 y ww <= 49)) 45 2022-09-27 20:02:00
1 1971-12-02 19:00:00 ts > 5.0 y ((ww >= 70 y ww <= 79) || (ww >= 85 y ww <= 88))) 88 2022-11-15 18:57:00
1 1974-05-19 19:00:00 ts > 3.0 y ( (ww >= 48 y ww <= 49) o (ww >= 56 y ww <= 57) o (ww >=66 y ww <= 67)) 67 2023-03-13 12:37:00
1 1974-05-19 20:00:00 ts > 3.0 y ( (ww >= 48 y ww <= 49) o (ww >= 56 y ww <= 57) o (ww >=66 y ww <= 67)) 67 2023-03-13 12:37:00
1 1974-05-19 22:00:00 ts > 3.0 y ( (ww >= 48 y ww <= 49) o (ww >= 56 y ww <= 57) o (ww >=66 y ww <= 67)) 67 2023-03-13 12:37:00
1 1974-05-19 23:00:00 ts > 3.0 y ( (ww >= 48 y ww <= 49) o (ww >= 56 y ww <= 57) o (ww >=66 y ww <= 67)) 67 2023-03-13 12:37:00
1 1974-06-30 19:00:00 ts > 3.0 y ( (ww >= 48 y ww <= 49) o (ww >= 56 y ww <= 57) o (ww >=66 y ww <= 67)) 56 2023-03-14 20:38:00
1 1974-06-30 20:00:00 ts > 3.0 y ( (ww >= 48 y ww <= 49) o (ww >= 56 y ww <= 57) o (ww >=66 y ww <= 67)) 56 2023-03-14 20:38:00
1 1974-07-27 12:00:00 (ts - td > 5.0) y ((ww >= 40 y ww <= 49)) 45 2023-03-15 16:22:00
1 1975-06-15 19:00:00 (ts - td > 5.0) y ((ww >= 40 y ww <= 49)) 40 2023-04-17 20:12:00
1 1975-06-15 20:00:00 (ts - td > 5.0) y ((ww >= 40 y ww <= 49)) 40 2023-04-17 20:12:00
1 1975-06-15 21:00:00 (ts - td > 5.0) y ((ww >= 40 y ww <= 49)) 40 2023-04-13 14:21:00
1 1975-07-22 19:00:00 (ts - td > 5.0) y ((ww >= 40 y ww <= 49)) 44 2023-04-26 21:04:00
1 2007-07-31 13:00:00 (ts - td > 5.0) y ((ww >= 40 y ww <= 49)) 40 2023-08-28 15:19:00
1 2007-09-30 15:00:00 (ts - td > 5.0) y ((ww >= 40 y ww <= 49)) 40 2023-08-29 15:43:00
1 2009-07-09 13:00:00 (ts - td > 5.0) y ((ww >= 40 y ww <= 49)) 45 2023-10-05 15:06:00
1 2011-04-10 13:00:00 ts > 3.0 y ( (ww >= 48 y ww <= 49) o (ww >= 56 y ww <= 57) o (ww >=66 y ww <= 67)) 57 2023-10-17 17:38:00
1 2014-09-03 15:00:00 (ts - td > 5.0) y ((ww >= 40 y ww <= 49)) 41 2023-11-02 19:12:00
1 2014-09-17 13:00:00 ts > 3.0 y ( (ww >= 48 y ww <= 49) o (ww >= 56 y ww <= 57) o (ww >=66 y ww <= 67)) 57 2023-11-03 13:16:00
1 1956-07-01 14:00:00 Ts debe ser mayor o igual a Td Ts=6.9 - Td=7.0 2023-03-16 17:53:00
1 1956-07-02 14:00:00 Ts debe ser mayor o igual a Td Ts=4.9 - Td=5.0 2023-03-16 18:01:00
1 1956-07-05 11:00:00 Ts debe ser mayor o igual a Td Ts=3.6 - Td=4.0 2023-03-16 18:25:00
1 1956-07-13 11:00:00 Ts debe ser mayor o igual a Td Ts=2.8 - Td=3.0 2023-03-16 19:41:00
1 1956-07-17 11:00:00 Ts debe ser mayor o igual a Td Ts=4.8 - Td=5.0 2023-03-17 12:19:00
1 1956-07-18 11:00:00 Ts debe ser mayor o igual a Td Ts=3.9 - Td=4.0 2023-03-17 13:12:00
1 1956-07-23 11:00:00 Ts debe ser mayor o igual a Td Ts=6.9 - Td=7.0 2023-03-17 14:23:00
1 1956-09-05 11:00:00 Ts debe ser mayor o igual a Td Ts=2.9 - Td=3.0 2023-03-20 18:58:00
1 1956-09-11 11:00:00 Ts debe ser mayor o igual a Td Ts=0.6 - Td=1.0 2023-03-20 20:20:00
1 1956-09-22 11:00:00 Ts debe ser mayor o igual a Td Ts=3.8 - Td=4.0 2023-03-21 13:36:00
1 1957-05-05 13:00:00 Ts debe ser mayor o igual a Td Ts=5.6 - Td=6.0 2022-11-15 15:07:00
1 1957-05-10 11:00:00 Ts debe ser mayor o igual a Td Ts=2.8 - Td=3.0 2022-11-15 18:12:00
1 1957-05-26 19:00:00 Ts debe ser mayor o igual a Td Ts=9.8 - Td=10.0 2022-11-16 12:44:00
1 1957-08-01 11:00:00 Ts debe ser mayor o igual a Td Ts=0.8 - Td=1.0 2022-11-18 19:56:00
1 1957-08-09 11:00:00 Ts debe ser mayor o igual a Td Ts=2.8 - Td=3.0 2022-11-21 13:56:00
1 1957-08-10 12:00:00 Ts debe ser mayor o igual a Td Ts=5.9 - Td=6.0 2022-11-21 14:03:00
1 1957-08-10 13:00:00 Ts debe ser mayor o igual a Td Ts=6.7 - Td=7.0 2022-11-21 14:03:00
1 1957-08-10 14:00:00 Ts debe ser mayor o igual a Td Ts=7.9 - Td=8.0 2022-11-21 14:03:00
1 1957-08-22 22:00:00 Ts debe ser mayor o igual a Td Ts=9.9 - Td=10.0 2022-11-21 20:21:00
1 1957-09-01 11:00:00 Ts debe ser mayor o igual a Td Ts=8.8 - Td=9.0 2022-11-22 13:19:00
1 1957-09-05 11:00:00 Ts debe ser mayor o igual a Td Ts=4.8 - Td=5.0 2022-11-22 13:56:00
1 1957-09-09 11:00:00 Ts debe ser mayor o igual a Td Ts=3.8 - Td=4.0 2022-11-22 15:17:00
1 1959-07-01 13:00:00 Ts debe ser mayor o igual a Td Ts=-0.2 - Td=0.0 2023-01-19 15:16:00
1 1959-07-16 11:00:00 Ts debe ser mayor o igual a Td Ts=6.8 - Td=7.0 2023-01-20 12:36:00
1 1959-07-16 16:00:00 Ts debe ser mayor o igual a Td Ts=8.8 - Td=9.0 2023-01-20 12:36:00
1 1959-07-16 20:00:00 Ts debe ser mayor o igual a Td Ts=9.9 - Td=10.0 2023-01-20 12:36:00
1 1959-11-05 11:00:00 Ts debe ser mayor o igual a Td Ts=10.9 - Td=11.0 2023-01-26 13:54:00
1 1959-11-07 11:00:00 Ts debe ser mayor o igual a Td Ts=9.8 - Td=10.0 2023-01-26 14:44:00
1 1959-11-08 11:00:00 Ts debe ser mayor o igual a Td Ts=9.8 - Td=10.0 2023-01-26 15:04:00
1 1960-02-14 11:00:00 Ts debe ser mayor o igual a Td Ts=14.8 - Td=15.0 2023-03-08 13:43:00
1 1960-02-24 11:00:00 Ts debe ser mayor o igual a Td Ts=11.9 - Td=12.0 2023-03-08 17:04:00
1 1960-05-19 12:00:00 Ts debe ser mayor o igual a Td Ts=-1.1 - Td=-0.9 2023-03-21 13:43:00
1 1960-05-20 13:00:00 Ts debe ser mayor o igual a Td Ts=-0.4 - Td=0.0 2023-03-21 14:02:00
1 1960-05-24 22:00:00 Ts debe ser mayor o igual a Td Ts=7.8 - Td=8.0 2023-03-21 15:45:00
1 1960-05-26 11:00:00 Ts debe ser mayor o igual a Td Ts=4.8 - Td=5.0 2023-03-21 16:29:00
1 1960-06-07 11:00:00 Ts debe ser mayor o igual a Td Ts=9.6 - Td=10.0 2023-03-22 14:34:00
1 1960-06-15 11:00:00 Ts debe ser mayor o igual a Td Ts=8.9 - Td=9.0 2023-03-22 20:33:00
1 1960-06-18 11:00:00 Ts debe ser mayor o igual a Td Ts=4.8 - Td=5.0 2023-03-23 14:00:00
1 1960-06-19 11:00:00 Ts debe ser mayor o igual a Td Ts=9.8 - Td=10.0 2023-03-23 14:34:00
1 1960-06-22 11:00:00 Ts debe ser mayor o igual a Td Ts=9.9 - Td=10.0 2023-03-23 17:25:00
1 1960-06-23 11:00:00 Ts debe ser mayor o igual a Td Ts=7.8 - Td=8.0 2023-03-23 17:35:00
1 1960-06-24 11:00:00 Ts debe ser mayor o igual a Td Ts=5.7 - Td=6.0 2023-03-23 17:40:00
1 1960-07-01 11:00:00 Ts debe ser mayor o igual a Td Ts=7.8 - Td=8.0 2023-03-27 14:39:00
1 1960-07-03 13:00:00 Ts debe ser mayor o igual a Td Ts=6.7 - Td=7.0 2023-03-27 15:15:00
1 1960-07-03 14:00:00 Ts debe ser mayor o igual a Td Ts=6.9 - Td=7.0 2023-03-27 15:15:00
1 1960-07-09 13:00:00 Ts debe ser mayor o igual a Td Ts=-0.2 - Td=0.0 2023-03-27 17:16:00
1 1960-07-10 22:00:00 Ts debe ser mayor o igual a Td Ts=4.8 - Td=5.0 2023-03-27 17:21:00
1 1960-07-11 11:00:00 Ts debe ser mayor o igual a Td Ts=2.8 - Td=3.0 2023-03-27 17:27:00
1 1960-07-22 11:00:00 Ts debe ser mayor o igual a Td Ts=5.8 - Td=6.0 2023-03-27 19:15:00
1 1960-07-27 11:00:00 Ts debe ser mayor o igual a Td Ts=0.8 - Td=1.0 2023-03-27 19:51:00
1 1960-08-04 11:00:00 Ts debe ser mayor o igual a Td Ts=2.8 - Td=3.0 2023-03-28 13:35:00
1 1960-08-17 11:00:00 Ts debe ser mayor o igual a Td Ts=-0.4 - Td=0.0 2023-03-28 16:12:00
1 1960-08-18 12:00:00 Ts debe ser mayor o igual a Td Ts=-0.4 - Td=-0.2 2023-03-28 17:29:00
1 1960-08-20 11:00:00 Ts debe ser mayor o igual a Td Ts=5.8 - Td=6.0 2023-03-28 18:03:00
1 1960-08-31 11:00:00 Ts debe ser mayor o igual a Td Ts=-1.2 - Td=-1.0 2023-03-29 12:50:00
1 1960-09-02 11:00:00 Ts debe ser mayor o igual a Td Ts=2.8 - Td=3.0 2023-03-29 14:54:00
1 1960-09-10 11:00:00 Ts debe ser mayor o igual a Td Ts=7.8 - Td=8.0 2023-03-29 17:37:00
1 1960-09-23 11:00:00 Ts debe ser mayor o igual a Td Ts=5.8 - Td=6.0 2023-03-30 15:58:00
1 1960-09-28 11:00:00 Ts debe ser mayor o igual a Td Ts=6.8 - Td=7.0 2023-03-30 18:36:00
1 1960-09-29 11:00:00 Ts debe ser mayor o igual a Td Ts=6.6 - Td=7.0 2023-03-30 18:48:00
1 1960-10-12 11:00:00 Ts debe ser mayor o igual a Td Ts=5.7 - Td=6.0 2023-03-31 12:57:00
1 1960-10-19 11:00:00 Ts debe ser mayor o igual a Td Ts=10.6 - Td=11.0 2023-03-31 13:32:00
1 1960-10-23 14:00:00 Ts debe ser mayor o igual a Td Ts=8.6 - Td=9.0 2023-03-31 15:28:00
1 1960-10-24 11:00:00 Ts debe ser mayor o igual a Td Ts=2.8 - Td=3.0 2023-03-31 18:10:00
1 1960-11-07 11:00:00 Ts debe ser mayor o igual a Td Ts=10.6 - Td=11.0 2023-04-10 19:25:00
1 1960-11-15 11:00:00 Ts debe ser mayor o igual a Td Ts=7.9 - Td=8.0 2023-04-11 13:03:00
1 1961-01-17 11:00:00 Ts debe ser mayor o igual a Td Ts=10.7 - Td=11.0 2023-02-09 18:20:00
1 1961-03-09 11:00:00 Ts debe ser mayor o igual a Td Ts=8.9 - Td=9.0 2023-02-21 18:11:00
1 1961-03-17 11:00:00 Ts debe ser mayor o igual a Td Ts=7.8 - Td=8.0 2023-02-21 19:57:00
1 1961-03-19 11:00:00 Ts debe ser mayor o igual a Td Ts=10.9 - Td=11.0 2023-02-22 13:40:00
1 1961-03-20 11:00:00 Ts debe ser mayor o igual a Td Ts=10.9 - Td=11.0 2023-02-22 13:49:00
1 1961-04-05 11:00:00 Ts debe ser mayor o igual a Td Ts=4.8 - Td=5.0 2023-02-22 19:53:00
1 1961-04-08 11:00:00 Ts debe ser mayor o igual a Td Ts=8.8 - Td=9.0 2023-02-23 13:25:00
1 1961-04-21 11:00:00 Ts debe ser mayor o igual a Td Ts=7.8 - Td=8.0 2023-02-23 17:41:00
1 1961-06-01 16:00:00 Ts debe ser mayor o igual a Td Ts=10.2 - Td=89.0 2023-02-28 12:50:00
1 1961-06-18 13:00:00 Ts debe ser mayor o igual a Td Ts=2.8 - Td=3.0 2023-02-28 18:14:00
1 1961-06-23 13:00:00 Ts debe ser mayor o igual a Td Ts=4.8 - Td=5.0 2023-02-28 18:52:00
1 1961-06-23 14:00:00 Ts debe ser mayor o igual a Td Ts=4.8 - Td=5.0 2023-02-28 18:52:00
1 1961-07-02 13:00:00 Ts debe ser mayor o igual a Td Ts=-1.1 - Td=-1.0 2023-03-01 16:15:00
1 1961-07-13 13:00:00 Ts debe ser mayor o igual a Td Ts=1.4 - Td=11.0 2023-03-01 20:09:00
1 1961-07-29 13:00:00 Ts debe ser mayor o igual a Td Ts=5.8 - Td=6.0 2023-03-02 18:06:00
1 1961-07-30 11:00:00 Ts debe ser mayor o igual a Td Ts=7.8 - Td=8.0 2023-03-02 18:14:00
1 1961-10-18 11:00:00 Ts debe ser mayor o igual a Td Ts=9.8 - Td=10.0 2023-03-14 19:59:00
1 1961-10-21 11:00:00 Ts debe ser mayor o igual a Td Ts=5.8 - Td=6.0 2023-03-15 11:59:00
1 1961-11-03 11:00:00 Ts debe ser mayor o igual a Td Ts=11.8 - Td=12.0 2023-03-15 15:13:00
1 1962-02-09 11:00:00 Ts debe ser mayor o igual a Td Ts=12.8 - Td=13.0 2023-01-03 18:56:00
1 1962-05-14 13:00:00 Ts debe ser mayor o igual a Td Ts=9.8 - Td=10.0 2023-01-09 15:59:00
1 1962-05-16 14:00:00 Ts debe ser mayor o igual a Td Ts=1.8 - Td=2.0 2023-01-09 17:45:00
1 1962-05-21 13:00:00 Ts debe ser mayor o igual a Td Ts=0.8 - Td=2.0 2023-01-09 20:05:00
1 1962-05-24 11:00:00 Ts debe ser mayor o igual a Td Ts=0.8 - Td=1.2 2023-01-10 13:28:00
1 1962-05-24 14:00:00 Ts debe ser mayor o igual a Td Ts=2.2 - Td=4.2 2023-01-10 13:28:00
1 1962-06-05 13:00:00 Ts debe ser mayor o igual a Td Ts=-1.6 - Td=2.0 2023-01-10 17:29:00
1 1962-06-05 20:00:00 Ts debe ser mayor o igual a Td Ts=14.8 - Td=15.0 2023-01-10 17:29:00
1 1962-06-28 11:00:00 Ts debe ser mayor o igual a Td Ts=4.6 - Td=5.0 2023-01-11 15:08:00
1 1962-06-28 11:00:00 HR (Humedad Relativa) es igual a 100% y Ts <> Td 4.6 - 5.0 2023-01-11 15:08:00
1 1962-06-28 13:00:00 Ts debe ser mayor o igual a Td Ts=4.8 - Td=5.0 2023-01-11 15:08:00
1 1962-07-15 11:00:00 Ts debe ser mayor o igual a Td Ts=-3.2 - Td=-3.0 2023-01-12 18:26:00
1 1962-07-19 13:00:00 Ts debe ser mayor o igual a Td Ts=-2.4 - Td=-2.0 2023-01-12 20:10:00
1 1962-08-19 11:00:00 Ts debe ser mayor o igual a Td Ts=0.2 - Td=5.0 2023-01-16 18:12:00
1 1962-08-25 13:00:00 Ts debe ser mayor o igual a Td Ts=9.8 - Td=10.0 2023-01-16 19:34:00
1 1962-08-30 11:00:00 Ts debe ser mayor o igual a Td Ts=4.9 - Td=5.0 2023-01-16 20:21:00
1 1962-09-02 11:00:00 Ts debe ser mayor o igual a Td Ts=8.9 - Td=9.0 2023-01-17 12:40:00
1 1962-09-11 14:00:00 Ts debe ser mayor o igual a Td Ts=7.6 - Td=8.0 2023-01-17 14:10:00
1 1963-03-23 12:00:00 Ts debe ser mayor o igual a Td Ts=9.7 - Td=10.0 2022-11-07 17:50:00
1 1963-04-01 11:00:00 Ts debe ser mayor o igual a Td Ts=6.9 - Td=7.0 2022-11-08 14:56:00
1 1963-04-15 11:00:00 Ts debe ser mayor o igual a Td Ts=9.6 - Td=10.0 2022-11-10 13:54:00
1 1963-04-15 11:00:00 HR (Humedad Relativa) es igual a 100% y Ts <> Td 9.6 - 10.0 2022-11-10 13:54:00
1 1963-04-15 12:00:00 Ts debe ser mayor o igual a Td Ts=9.8 - Td=10.0 2022-11-10 13:54:00
1 1963-04-15 14:00:00 Ts debe ser mayor o igual a Td Ts=10.8 - Td=11.0 2022-11-10 13:54:00
1 1963-04-26 11:00:00 Ts debe ser mayor o igual a Td Ts=2.8 - Td=3.0 2022-11-10 17:49:00
1 1963-04-30 14:00:00 HR (Humedad Relativa) es igual a 100% y Ts <> Td 9.3 - 9.0 2022-11-11 12:46:00
1 1963-04-30 15:00:00 Ts debe ser mayor o igual a Td Ts=9.9 - Td=10.0 2022-11-11 12:46:00
1 1963-05-24 11:00:00 Ts debe ser mayor o igual a Td Ts=-0.3 - Td=0.0 2022-11-14 12:51:00
1 1963-05-24 11:00:00 HR (Humedad Relativa) es igual a 100% y Ts <> Td -0.3 - 0.0 2022-11-14 12:51:00
1 1963-05-24 12:00:00 Ts debe ser mayor o igual a Td Ts=-0.1 - Td=0.1 2022-11-14 12:51:00
1 1963-05-24 12:00:00 HR (Humedad Relativa) es igual a 100% y Ts <> Td -0.1 - 0.1 2022-11-14 12:51:00
1 1963-07-10 11:00:00 Ts debe ser mayor o igual a Td Ts=7.9 - Td=8.0 2022-11-22 14:04:00
1 1963-07-15 13:00:00 Ts debe ser mayor o igual a Td Ts=4.5 - Td=5.0 2022-11-22 16:09:00
1 1963-07-15 13:00:00 HR (Humedad Relativa) es igual a 100% y Ts <> Td 4.5 - 5.0 2022-11-22 16:09:00
1 1963-07-15 14:00:00 HR (Humedad Relativa) es igual a 100% y Ts <> Td 4.4 - 4.0 2022-11-22 16:09:00
1 1963-07-16 13:00:00 Ts debe ser mayor o igual a Td Ts=1.2 - Td=5.0 2022-11-22 17:39:00
1 1963-08-01 13:00:00 Ts debe ser mayor o igual a Td Ts=-0.1 - Td=5.0 2022-11-23 16:07:00
1 1963-08-30 11:00:00 Ts debe ser mayor o igual a Td Ts=5.8 - Td=6.0 2022-11-25 17:13:00
1 1963-08-30 13:00:00 Ts debe ser mayor o igual a Td Ts=5.7 - Td=6.0 2022-11-25 17:13:00
1 1963-09-08 11:00:00 Ts debe ser mayor o igual a Td Ts=-1.4 - Td=-1.0 2022-11-29 13:34:00
1 1963-09-15 11:00:00 Ts debe ser mayor o igual a Td Ts=8.7 - Td=9.0 2022-11-29 17:15:00
1 1963-09-15 11:00:00 HR (Humedad Relativa) es igual a 100% y Ts <> Td 8.7 - 9.0 2022-11-29 17:15:00
1 1963-11-30 11:00:00 Ts debe ser mayor o igual a Td Ts=7.8 - Td=8.0 2022-12-07 16:24:00
1 1964-06-19 11:00:00 Ts debe ser mayor o igual a Td Ts=-1.4 - Td=-1.0 2022-12-28 13:43:00
1 1964-06-20 14:00:00 Ts debe ser mayor o igual a Td Ts=-1.2 - Td=-1.0 2022-12-28 13:49:00
1 1965-07-14 12:00:00 Ts debe ser mayor o igual a Td Ts=-1.0 - Td=-0.4 2023-03-10 18:59:00
1 1966-05-09 15:00:00 Ts debe ser mayor o igual a Td Ts=7.9 - Td=8.0 2022-10-05 17:14:00
1 1966-05-22 13:00:00 Ts debe ser mayor o igual a Td Ts=6.9 - Td=7.0 2022-10-06 17:26:00
1 1966-06-23 13:00:00 HR (Humedad Relativa) es igual a 100% y Ts <> Td 0.3 - 0.0 2022-10-13 17:23:00
1 1966-09-30 13:00:00 Ts debe ser mayor o igual a Td Ts=8.9 - Td=9.0 2022-11-07 12:49:00
1 1967-06-03 15:00:00 Ts debe ser mayor o igual a Td Ts=3.0 - Td=7.8 2023-02-08 13:46:00
1 1967-06-26 12:00:00 Ts debe ser mayor o igual a Td Ts=-2.0 - Td=2.2 2023-02-09 19:23:00
1 1967-06-27 12:00:00 Ts debe ser mayor o igual a Td Ts=-1.4 - Td=2.3 2023-02-09 19:44:00
1 1967-06-28 12:00:00 Ts debe ser mayor o igual a Td Ts=-3.3 - Td=3.6 2023-02-09 20:01:00
1 1967-06-30 12:00:00 Ts debe ser mayor o igual a Td Ts=-2.0 - Td=4.0 2023-02-09 20:30:00
1 1967-07-19 12:00:00 Ts debe ser mayor o igual a Td Ts=-0.6 - Td=2.0 2023-02-13 13:37:00
1 1967-07-22 12:00:00 Ts debe ser mayor o igual a Td Ts=-1.3 - Td=2.0 2023-02-13 14:01:00
1 1968-04-19 15:00:00 Ts debe ser mayor o igual a Td Ts=10.8 - Td=11.0 2022-10-20 12:42:00
1 1968-05-14 12:00:00 Ts debe ser mayor o igual a Td Ts=0.2 - Td=0.8 2022-10-21 13:14:00
1 1968-06-21 12:00:00 HR (Humedad Relativa) es igual a 100% y Ts <> Td -2.6 - -4.2 2022-10-25 13:12:00
1 1968-06-30 14:00:00 Ts debe ser mayor o igual a Td Ts=4.6 - Td=6.5 2022-11-08 13:40:00
1 1968-07-01 13:00:00 Ts debe ser mayor o igual a Td Ts=4.7 - Td=5.0 2022-11-09 17:55:00
1 1968-07-01 16:00:00 Ts debe ser mayor o igual a Td Ts=7.9 - Td=8.0 2022-11-09 18:03:00
1 1968-07-02 23:00:00 Ts debe ser mayor o igual a Td Ts=7.6 - Td=8.0 2022-11-09 19:15:00
1 1968-07-05 13:00:00 Ts debe ser mayor o igual a Td Ts=-0.4 - Td=5.1 2022-11-10 15:23:00
1 1968-07-09 13:00:00 Ts debe ser mayor o igual a Td Ts=-0.5 - Td=1.0 2022-11-11 13:23:00
1 1968-07-10 13:00:00 Ts debe ser mayor o igual a Td Ts=-0.3 - Td=2.0 2022-11-11 13:45:00
1 1968-07-14 13:00:00 Ts debe ser mayor o igual a Td Ts=3.8 - Td=4.0 2022-11-11 19:13:00
1 1968-07-15 12:00:00 Ts debe ser mayor o igual a Td Ts=-0.3 - Td=5.2 2022-11-11 19:56:00
1 1968-07-15 13:00:00 Ts debe ser mayor o igual a Td Ts=-0.8 - Td=2.0 2022-11-11 19:56:00
1 1968-07-15 14:00:00 Ts debe ser mayor o igual a Td Ts=0.3 - Td=2.0 2022-11-11 19:56:00
1 1968-07-20 13:00:00 Ts debe ser mayor o igual a Td Ts=3.6 - Td=4.0 2022-11-14 18:38:00
1 1968-07-20 13:00:00 HR (Humedad Relativa) es igual a 100% y Ts <> Td 3.6 - 4.0 2022-11-14 18:38:00
1 1968-07-20 16:00:00 HR (Humedad Relativa) es igual a 100% y Ts <> Td 5.4 - 5.0 2022-11-14 18:38:00
1 1968-07-22 12:00:00 Ts debe ser mayor o igual a Td Ts=0.0 - Td=5.1 2022-11-14 19:43:00
1 1968-08-01 13:00:00 Ts debe ser mayor o igual a Td Ts=0.9 - Td=1.0 2022-11-16 14:48:00
1 1968-08-21 12:00:00 Ts debe ser mayor o igual a Td Ts=-1.4 - Td=1.9 2023-01-05 15:59:00
1 1968-09-05 13:00:00 Ts debe ser mayor o igual a Td Ts=7.6 - Td=8.0 2022-11-21 20:10:00
1 1968-09-05 13:00:00 HR (Humedad Relativa) es igual a 100% y Ts <> Td 7.6 - 8.0 2022-11-21 20:10:00
1 1968-09-20 12:00:00 Ts debe ser mayor o igual a Td Ts=6.2 - Td=7.0 2022-11-24 16:48:00
1 1969-06-10 19:00:00 Ts debe ser mayor o igual a Td Ts=10.1 - Td=11.0 2022-09-26 15:33:00
1 1969-06-10 23:00:00 Ts debe ser mayor o igual a Td Ts=10.8 - Td=11.0 2022-09-26 15:33:00
1 1969-06-15 13:00:00 Ts debe ser mayor o igual a Td Ts=0.4 - Td=0.6 2022-09-26 17:41:00
1 1969-06-23 17:00:00 Ts debe ser mayor o igual a Td Ts=15.2 - Td=19.2 2022-09-27 12:39:00
1 1969-07-07 14:00:00 HR (Humedad Relativa) es igual a 100% y Ts <> Td 2.8 - -2.8 2022-09-27 20:02:00
1 1975-07-15 13:00:00 Ts debe ser mayor o igual a Td Ts=-0.5 - Td=-0.3 2023-04-26 19:58:00
1 1975-07-16 15:00:00 HR (Humedad Relativa) es igual a 100% y Ts <> Td -1.6 - -2.6 2023-04-25 18:16:00
1 1975-07-23 13:00:00 Ts debe ser mayor o igual a Td Ts=-2.4 - Td=-2.2 2023-04-26 21:06:00
1 1975-07-30 12:00:00 HR (Humedad Relativa) es igual a 100% y Ts <> Td 6.3 - 6.0 2023-04-25 20:10:00
1 2007-07-29 13:00:00 HR (Humedad Relativa) es igual a 100% y Ts <> Td 0.0 - -0.3 2023-08-28 15:03:00
1 2007-08-04 13:00:00 Ts debe ser mayor o igual a Td Ts=-0.4 - Td=0.0 2023-08-28 15:44:00
1 2008-07-08 15:00:00 HR (Humedad Relativa) es igual a 100% y Ts <> Td 6.6 - 6.0 2023-10-03 19:09:00
1 2009-06-23 13:00:00 Ts debe ser mayor o igual a Td Ts=-1.0 - Td=-0.8 2023-10-04 19:42:00
1 2009-06-23 14:00:00 Ts debe ser mayor o igual a Td Ts=-1.0 - Td=-0.8 2023-10-04 19:42:00
1 2010-07-14 13:00:00 Ts debe ser mayor o igual a Td Ts=-2.5 - Td=-2.4 2023-10-13 12:54:00
1 2011-06-28 13:00:00 Ts debe ser mayor o igual a Td Ts=-0.5 - Td=0.0 2023-10-19 19:15:00
1 2011-07-04 13:00:00 Ts debe ser mayor o igual a Td Ts=-0.4 - Td=0.2 2023-10-20 12:41:00
1 2011-09-13 12:00:00 Ts debe ser mayor o igual a Td Ts=5.7 - Td=9.7 2023-10-24 14:52:00
1 2013-09-13 15:00:00 Ts debe ser mayor o igual a Td Ts=5.4 - Td=9.3 2023-11-02 20:15:00
1 2013-09-13 16:00:00 Ts debe ser mayor o igual a Td Ts=6.0 - Td=9.9 2023-11-02 20:15:00
1 2015-06-17 13:00:00 Ts debe ser mayor o igual a Td Ts=0.4 - Td=10.1 2023-11-02 12:01:00
1 2015-06-17 16:00:00 Ts debe ser mayor o igual a Td Ts=1.6 - Td=6.4 2023-11-02 12:01:00
1 2018-06-22 16:10:00 Ts debe ser mayor o igual a Td Ts=7.6 - Td=82.0 2018-06-22 16:09:00
Errores del Nivel 274
Nivel Fecha del Dato Descripción Información Error Fecha Ingreso
2 1951-03-24 12:00:00 Temperatura 10.0 del 24-03-1951 10:00, Menor que la Mínima 11.0 24-03-1951 12:00 10.0 -- 11.0 2023-05-08 20:31:00
2 1951-04-06 12:00:00 Temperatura 8.0 del 06-04-1951 12:00, Menor que la Mínima 13.0 06-04-1951 12:00 8.0 -- 13.0 2023-05-09 15:47:00
2 1951-05-12 12:00:00 Temperatura 10.0 del 12-05-1951 12:00, Menor que la Mínima 11.0 12-05-1951 12:00 10.0 -- 11.0 2023-05-11 16:33:00
2 1951-05-13 12:00:00 Temperatura 10.0 del 13-05-1951 10:00, Menor que la Mínima 11.0 13-05-1951 12:00 10.0 -- 11.0 2023-05-11 16:43:00
2 1951-05-31 12:00:00 Temperatura 3.0 del 31-05-1951 11:00, Menor que la Mínima 5.0 31-05-1951 12:00 3.0 -- 5.0 2023-05-12 14:28:00
2 1951-07-08 12:00:00 Temperatura 4.0 del 08-07-1951 12:00, Menor que la Mínima 14.0 08-07-1951 12:00 4.0 -- 14.0 2023-04-14 15:16:00
2 1951-08-14 12:00:00 Temperatura 0.0 del 14-08-1951 10:00, Menor que la Mínima 4.0 14-08-1951 12:00 0.0 -- 4.0 2023-04-18 16:18:00
2 1951-09-29 12:00:00 Temperatura 5.0 del 29-09-1951 10:00, Menor que la Mínima 6.0 29-09-1951 12:00 5.0 -- 6.0 2023-04-20 20:34:00
2 1952-03-11 12:00:00 Temperatura 14.0 del 11-03-1952 10:00, Menor que la Mínima 15.0 11-03-1952 12:00 14.0 -- 15.0 2023-05-02 20:09:00
2 1952-06-01 12:00:00 Temperatura 4.0 del 01-06-1952 10:00, Menor que la Mínima 18.0 01-06-1952 12:00 4.0 -- 18.0 2023-05-08 13:12:00
2 1952-06-26 12:00:00 Temperatura 3.6 del 26-06-1952 12:00, Menor que la Mínima 13.0 26-06-1952 12:00 3.6 -- 13.0 2023-05-09 13:00:00
2 1952-06-28 12:00:00 Temperatura -1.1 del 28-06-1952 12:00, Menor que la Mínima 6.2 28-06-1952 12:00 -1.1 -- 6.2 2023-05-09 13:07:00
2 1952-07-02 12:00:00 Temperatura 2.5 del 02-07-1952 10:00, Menor que la Mínima 3.0 02-07-1952 12:00 2.5 -- 3.0 2023-05-09 16:28:00
2 1952-07-14 12:00:00 Temperatura 0.0 del 14-07-1952 10:00, Menor que la Mínima 2.8 14-07-1952 12:00 0.0 -- 2.8 2023-05-09 19:31:00
2 1952-07-24 12:00:00 Temperatura 5.0 del 24-07-1952 11:00, Menor que la Mínima 5.9 24-07-1952 12:00 5.0 -- 5.9 2023-05-10 13:48:00
2 1952-08-14 12:00:00 Temperatura 2.7 del 14-08-1952 12:00, Menor que la Mínima 3.0 14-08-1952 12:00 2.7 -- 3.0 2023-05-10 19:23:00
2 1955-03-10 12:00:00 Temperatura 9.4 del 10-03-1955 11:00, Menor que la Mínima 9.9 10-03-1955 12:00 9.4 -- 9.9 2023-03-30 16:26:00
2 1955-04-26 12:00:00 Temperatura 6.3 del 26-04-1955 11:00, Menor que la Mínima 6.4 26-04-1955 12:00 6.3 -- 6.4 2023-03-31 19:07:00
2 1955-05-25 12:00:00 Temperatura 0.1 del 25-05-1955 12:00, Menor que la Mínima 3.2 25-05-1955 12:00 0.1 -- 3.2 2023-04-11 16:51:00
2 1956-02-06 12:00:00 Temperatura 8.4 del 06-02-1956 10:00, Menor que la Mínima 9.2 06-02-1956 12:00 8.4 -- 9.2 2023-03-08 20:09:00
2 1956-04-08 12:00:00 Temperatura 6.0 del 08-04-1956 11:00, Menor que la Mínima 6.1 08-04-1956 12:00 6.0 -- 6.1 2023-03-10 15:19:00
2 1956-05-06 12:00:00 Temperatura 4.8 del 06-05-1956 10:00, Menor que la Mínima 5.4 06-05-1956 12:00 4.8 -- 5.4 2023-03-13 15:27:00
2 1956-09-20 12:00:00 Temperatura 2.5 del 20-09-1956 11:00, Menor que la Mínima 2.6 20-09-1956 12:00 2.5 -- 2.6 2023-03-21 13:15:00
2 1957-03-06 12:00:00 Temperatura 8.8 del 06-03-1957 11:00, Menor que la Mínima 9.6 06-03-1957 12:00 8.8 -- 9.6 2022-11-10 19:41:00
2 1960-08-14 12:00:00 Temperatura 0.0 del 14-08-1960 11:00, Menor que la Mínima 3.4 14-08-1960 12:00 0.0 -- 3.4 2023-03-28 15:56:00
2 1961-07-01 12:00:00 Temperatura -1.3 del 01-07-1961 11:00, Menor que la Mínima 2.4 01-07-1961 12:00 -1.3 -- 2.4 2023-02-08 18:54:00
2 1961-08-13 12:00:00 Temperatura -0.1 del 13-08-1961 12:00, Menor que la Mínima 1.6 13-08-1961 12:00 -0.1 -- 1.6 2023-02-08 18:58:00
2 1962-05-12 12:00:00 Temperatura 2.8 del 12-05-1962 12:00, Menor que la Mínima 2.9 12-05-1962 12:00 2.8 -- 2.9 2023-01-09 15:46:00
2 1962-07-18 12:00:00 Temperatura 0.7 del 18-07-1962 11:00, Menor que la Mínima 2.4 18-07-1962 12:00 0.7 -- 2.4 2023-01-12 19:10:00
2 1963-05-04 12:00:00 Temperatura 2.8 del 04-05-1963 11:00, Menor que la Mínima 3.0 04-05-1963 12:00 2.8 -- 3.0 2022-11-11 13:22:00
2 1963-05-11 12:00:00 Temperatura 6.3 del 11-05-1963 11:00, Menor que la Mínima 6.4 11-05-1963 12:00 6.3 -- 6.4 2022-11-11 14:45:00
2 1963-06-30 12:00:00 Temperatura 3.2 del 30-06-1963 11:00, Menor que la Mínima 3.6 30-06-1963 12:00 3.2 -- 3.6 2022-11-16 13:31:00
2 1963-08-08 12:00:00 Temperatura -1.1 del 08-08-1963 12:00, Menor que la Mínima 1.6 08-08-1963 12:00 -1.1 -- 1.6 2022-11-24 14:09:00
2 1971-07-06 12:00:00 Temperatura 1.0 del 06-07-1971 12:00, Menor que la Mínima 3.0 06-07-1971 12:00 1.0 -- 3.0 2022-10-18 14:57:00
2 1971-08-21 12:00:00 Temperatura 1.2 del 21-08-1971 12:00, Menor que la Mínima 2.0 21-08-1971 12:00 1.2 -- 2.0 2022-10-20 16:53:00
2 1973-06-06 12:00:00 Temperatura 8.8 del 06-06-1973 12:00, Menor que la Mínima 9.0 06-06-1973 12:00 8.8 -- 9.0 2023-01-16 11:56:00
2 1975-07-27 12:00:00 Temperatura 4.4 del 27-07-1975 11:00, Menor que la Mínima 6.1 27-07-1975 12:00 4.4 -- 6.1 2023-04-25 19:55:00
2 1975-07-30 12:00:00 Temperatura 0.6 del 30-07-1975 11:00, Menor que la Mínima 1.4 30-07-1975 12:00 0.6 -- 1.4 2023-04-25 20:10:00
2 2023-01-10 12:00:00 Temperatura 14.3 del 10-01-2023 10:00, Menor que la Mínima 16.5 10-01-2023 12:00 14.3 -- 16.5 2023-01-10 12:09:00
2 1958-07-06 19:00:00 Variación horaria de Intensidad del viento fuera de rango (1 hora Antes) 40 - 0 2022-12-19 19:48:00
2 1961-08-27 23:00:00 Variación horaria de Intensidad del viento fuera de rango (1 hora Antes) 140 - 18 2023-03-13 13:10:00
2 1961-08-27 23:00:00 Variación Tri-horaria de Intensidad del viento fuera de rango (3 hora Antes) 140 - 20 2023-03-13 13:10:00
2 1963-05-24 21:00:00 Variación horaria de Intensidad del viento fuera de rango (1 hora Antes) 47 - 6 2022-11-14 12:51:00
2 1963-05-24 22:00:00 Variación horaria de Intensidad del viento fuera de rango (1 hora Antes) 8 - 47 2022-11-14 12:51:00
2 1963-11-20 21:00:00 Variación horaria de Intensidad del viento fuera de rango (1 hora Antes) 65 - 10 2022-12-07 12:32:00
2 1963-11-20 22:00:00 Variación horaria de Intensidad del viento fuera de rango (1 hora Antes) 11 - 65 2022-12-07 12:32:00
2 1968-10-15 21:00:00 Variación horaria de Intensidad del viento fuera de rango (1 hora Antes) 34 - 0 2022-12-01 13:40:00
2 1969-05-20 23:00:00 Variación horaria de Intensidad del viento fuera de rango (1 hora Antes) 63 - 4 2022-09-23 13:17:00
2 1969-07-01 23:00:00 Variación horaria de Intensidad del viento fuera de rango (1 hora Antes) 5 - 96 2022-09-27 19:04:00
2 1969-07-06 17:00:00 Variación horaria de Intensidad del viento fuera de rango (1 hora Antes) 10 - 63 2022-09-27 19:50:00
2 1971-02-06 00:00:00 Variación horaria de Intensidad del viento fuera de rango (1 hora Antes) 98 - 8 2022-10-07 18:54:00
2 1971-02-06 00:00:00 Variación Tri-horaria de Intensidad del viento fuera de rango (3 hora Antes) 98 - 6 2022-10-07 18:54:00
2 1972-06-08 15:00:00 Variación horaria de Intensidad del viento fuera de rango (1 hora Antes) 40 - 2 2022-11-24 20:20:00
2 1972-06-08 16:00:00 Variación horaria de Intensidad del viento fuera de rango (1 hora Antes) 4 - 40 2022-12-14 20:02:00
2 1972-08-29 15:00:00 Variación horaria de Intensidad del viento fuera de rango (1 hora Antes) 90 - 8 2022-11-29 15:27:00
2 1972-08-29 16:00:00 Variación horaria de Intensidad del viento fuera de rango (1 hora Antes) 10 - 90 2022-12-20 16:47:00
2 1973-07-09 20:00:00 Variación horaria de Intensidad del viento fuera de rango (1 hora Antes) 38 - 6 2023-01-27 15:21:00
2 1973-07-09 21:00:00 Variación horaria de Intensidad del viento fuera de rango (1 hora Antes) 6 - 38 2023-01-24 12:20:00
2 1973-07-12 13:00:00 Variación horaria de Intensidad del viento fuera de rango (1 hora Antes) 0 - 40 2023-01-27 16:47:00
2 2008-05-08 16:00:00 Variación horaria de Intensidad del viento fuera de rango (1 hora Antes) 74 - 0 2023-10-02 19:57:00
2 2008-05-08 17:00:00 Variación horaria de Intensidad del viento fuera de rango (1 hora Antes) 4 - 74 2023-10-02 19:57:00
2 2013-10-07 15:00:00 Variación horaria de Intensidad del viento fuera de rango (1 hora Antes) 80 - 5 2023-11-03 19:27:00
2 2013-10-07 16:00:00 Variación horaria de Intensidad del viento fuera de rango (1 hora Antes) 10 - 80 2023-11-03 19:27:00
2 1960-12-10 00:00:00 Temperatura 27.3 del 09-12-1960 18:00, Mayor que la Máxima 27.1 10-12-1960 00:00 27.3 -- 27.1 2023-03-27 14:29:00
2 1962-02-03 00:00:00 Temperatura 31.8 del 02-02-1962 21:00, Mayor que la Máxima 31.4 03-02-1962 00:00 31.8 -- 31.4 2023-01-11 19:37:00
2 1964-04-01 00:00:00 Temperatura 24.4 del 31-03-1964 20:00, Mayor que la Máxima 24.2 01-04-1964 00:00 24.4 -- 24.2 2022-12-09 13:45:00
2 1964-04-18 00:00:00 Temperatura 19.2 del 17-04-1964 20:00, Mayor que la Máxima 19.0 18-04-1964 00:00 19.2 -- 19.0 2022-12-12 16:25:00
2 1964-10-20 00:00:00 Temperatura 12.6 del 19-10-1964 20:00, Mayor que la Máxima 12.4 20-10-1964 00:00 12.6 -- 12.4 2023-02-15 13:47:00
2 1964-11-02 00:00:00 Temperatura 28.2 del 01-11-1964 19:00, Mayor que la Máxima 28.0 02-11-1964 00:00 28.2 -- 28.0 2023-02-16 17:34:00
2 1966-06-22 00:00:00 Temperatura 7.6 del 21-06-1966 15:00, Mayor que la Máxima 7.4 22-06-1966 00:00 7.6 -- 7.4 2022-10-13 15:02:00
2 1966-12-11 00:00:00 Temperatura 25.2 del 10-12-1966 19:00, Mayor que la Máxima 25.0 11-12-1966 00:00 25.2 -- 25.0 2022-11-15 15:17:00
2 1968-08-06 00:00:00 Temperatura 13.6 del 05-08-1968 19:00, Mayor que la Máxima 0.3 06-08-1968 00:00 13.6 -- 0.3 2022-11-17 13:09:00
2 1968-10-22 00:00:00 Temperatura 20.1 del 21-10-1968 19:00, Mayor que la Máxima 20.0 22-10-1968 00:00 20.1 -- 20.0 2022-12-02 13:20:00
2 1968-10-31 00:00:00 Temperatura 23.6 del 30-10-1968 19:00, Mayor que la Máxima 23.2 31-10-1968 00:00 23.6 -- 23.2 2022-12-05 14:24:00
2 1970-06-24 00:00:00 Temperatura 15.4 del 23-06-1970 20:00, Mayor que la Máxima 15.3 24-06-1970 00:00 15.4 -- 15.3 2022-09-09 17:46:00
2 1970-06-29 00:00:00 Temperatura 8.4 del 28-06-1970 19:00, Mayor que la Máxima 8.0 29-06-1970 00:00 8.4 -- 8.0 2022-09-09 19:33:00
2 1970-09-10 00:00:00 Temperatura 19.0 del 09-09-1970 20:00, Mayor que la Máxima 18.9 10-09-1970 00:00 19.0 -- 18.9 2022-09-13 20:15:00
2 1970-09-17 00:00:00 Temperatura 18.0 del 16-09-1970 19:00, Mayor que la Máxima 17.4 17-09-1970 00:00 18.0 -- 17.4 2022-09-14 13:02:00
2 1970-10-14 00:00:00 Temperatura 19.2 del 13-10-1970 21:00, Mayor que la Máxima 19.0 14-10-1970 00:00 19.2 -- 19.0 2022-09-14 18:43:00
2 1970-10-19 00:00:00 Temperatura 20.4 del 18-10-1970 21:00, Mayor que la Máxima 20.2 19-10-1970 00:00 20.4 -- 20.2 2022-09-14 20:21:00
2 1970-11-05 00:00:00 Temperatura 27.0 del 04-11-1970 20:00, Mayor que la Máxima 26.8 05-11-1970 00:00 27.0 -- 26.8 2022-09-15 16:28:00
2 1970-11-20 00:00:00 Temperatura 21.6 del 19-11-1970 20:00, Mayor que la Máxima 21.5 20-11-1970 00:00 21.6 -- 21.5 2022-09-15 20:03:00
2 1971-01-27 00:00:00 Temperatura 28.2 del 26-01-1971 20:00, Mayor que la Máxima 11.4 27-01-1971 00:00 28.2 -- 11.4 2022-10-07 17:24:00
2 1971-05-23 00:00:00 Temperatura 16.0 del 22-05-1971 20:00, Mayor que la Máxima 15.8 23-05-1971 00:00 16.0 -- 15.8 2022-10-14 12:34:00
2 1971-06-12 00:00:00 Temperatura 14.6 del 11-06-1971 19:00, Mayor que la Máxima 0.0 12-06-1971 00:00 14.6 -- 0.0 2022-10-17 13:28:00
2 1971-06-13 00:00:00 Temperatura 16.2 del 12-06-1971 18:00, Mayor que la Máxima 0.0 13-06-1971 00:00 16.2 -- 0.0 2022-10-17 13:31:00
2 1971-08-11 00:00:00 Temperatura 14.6 del 10-08-1971 20:00, Mayor que la Máxima 14.5 11-08-1971 00:00 14.6 -- 14.5 2022-10-19 19:59:00
2 1971-08-12 00:00:00 Temperatura 9.8 del 11-08-1971 18:00, Mayor que la Máxima 9.7 12-08-1971 00:00 9.8 -- 9.7 2022-10-19 20:38:00
2 1971-08-17 00:00:00 Temperatura 15.0 del 16-08-1971 19:00, Mayor que la Máxima 14.9 17-08-1971 00:00 15.0 -- 14.9 2022-10-20 12:12:00
2 1971-09-01 00:00:00 Temperatura 20.4 del 31-08-1971 20:00, Mayor que la Máxima 20.0 01-09-1971 00:00 20.4 -- 20.0 2022-10-20 20:15:00
2 1971-09-04 00:00:00 Temperatura 18.8 del 03-09-1971 19:00, Mayor que la Máxima 18.5 04-09-1971 00:00 18.8 -- 18.5 2022-10-20 20:32:00
2 1971-09-06 00:00:00 Temperatura 16.2 del 05-09-1971 20:00, Mayor que la Máxima 15.8 06-09-1971 00:00 16.2 -- 15.8 2022-10-21 12:29:00
2 1971-09-11 00:00:00 Temperatura 10.4 del 10-09-1971 16:00, Mayor que la Máxima 10.3 11-09-1971 00:00 10.4 -- 10.3 2022-10-21 12:58:00
2 1971-09-16 00:00:00 Temperatura 16.8 del 15-09-1971 20:00, Mayor que la Máxima 16.5 16-09-1971 00:00 16.8 -- 16.5 2022-10-21 14:49:00
2 1971-09-17 00:00:00 Temperatura 20.4 del 16-09-1971 19:00, Mayor que la Máxima 20.2 17-09-1971 00:00 20.4 -- 20.2 2022-10-21 14:54:00
2 1971-09-21 00:00:00 Temperatura 13.8 del 20-09-1971 19:00, Mayor que la Máxima 13.0 21-09-1971 00:00 13.8 -- 13.0 2022-10-21 16:44:00
2 1971-11-12 00:00:00 Temperatura 28.0 del 11-11-1971 20:00, Mayor que la Máxima 26.4 12-11-1971 00:00 28.0 -- 26.4 2022-10-25 12:47:00
2 1971-12-14 00:00:00 Temperatura 24.8 del 13-12-1971 21:00, Mayor que la Máxima 24.4 14-12-1971 00:00 24.8 -- 24.4 2022-10-26 12:46:00
2 1972-03-22 00:00:00 Temperatura 22.6 del 21-03-1972 21:00, Mayor que la Máxima 22.2 22-03-1972 00:00 22.6 -- 22.2 2022-11-21 18:49:00
2 1972-03-29 00:00:00 Temperatura 23.4 del 28-03-1972 20:00, Mayor que la Máxima 23.0 29-03-1972 00:00 23.4 -- 23.0 2022-11-22 14:06:00
2 1972-05-25 00:00:00 Temperatura 14.6 del 24-05-1972 19:00, Mayor que la Máxima 14.4 25-05-1972 00:00 14.6 -- 14.4 2022-11-24 12:28:00
2 1972-06-02 00:00:00 Temperatura 9.8 del 01-06-1972 14:00, Mayor que la Máxima 9.6 02-06-1972 00:00 9.8 -- 9.6 2022-11-24 16:00:00
2 1972-06-08 00:00:00 Temperatura 13.4 del 07-06-1972 20:00, Mayor que la Máxima 13.0 08-06-1972 00:00 13.4 -- 13.0 2022-11-24 20:20:00
2 1972-06-23 00:00:00 Temperatura 16.6 del 22-06-1972 19:00, Mayor que la Máxima 16.4 23-06-1972 00:00 16.6 -- 16.4 2022-11-25 16:30:00
2 1972-06-28 00:00:00 Temperatura 6.0 del 27-06-1972 14:00, Mayor que la Máxima 5.8 28-06-1972 00:00 6.0 -- 5.8 2022-11-25 17:27:00
2 1972-10-03 00:00:00 Temperatura 12.1 del 02-10-1972 20:00, Mayor que la Máxima 11.6 03-10-1972 00:00 12.1 -- 11.6 2022-11-30 11:29:00
2 1972-10-18 00:00:00 Temperatura 18.2 del 17-10-1972 22:00, Mayor que la Máxima 17.8 18-10-1972 00:00 18.2 -- 17.8 2022-11-30 16:18:00
2 1972-10-31 00:00:00 Temperatura 16.0 del 30-10-1972 16:00, Mayor que la Máxima 1.7 31-10-1972 00:00 16.0 -- 1.7 2022-11-30 18:31:00
2 1972-11-26 00:00:00 Temperatura 25.3 del 25-11-1972 19:00, Mayor que la Máxima 15.4 26-11-1972 00:00 25.3 -- 15.4 2022-11-29 18:42:00
2 1972-12-03 00:00:00 Temperatura 23.4 del 02-12-1972 19:00, Mayor que la Máxima 11.6 03-12-1972 00:00 23.4 -- 11.6 2022-11-25 18:04:00
2 1973-07-02 00:00:00 Temperatura 13.8 del 01-07-1973 19:00, Mayor que la Máxima 13.7 02-07-1973 00:00 13.8 -- 13.7 2023-01-23 16:48:00
2 1973-11-26 00:00:00 Temperatura 27.4 del 25-11-1973 20:00, Mayor que la Máxima 27.0 26-11-1973 00:00 27.4 -- 27.0 2023-02-17 17:32:00
2 1973-12-08 00:00:00 Temperatura 24.4 del 07-12-1973 21:00, Mayor que la Máxima 2.5 08-12-1973 00:00 24.4 -- 2.5 2023-02-20 12:25:00
2 1974-07-01 00:00:00 Temperatura 8.4 del 30-06-1974 19:00, Mayor que la Máxima 0.9 01-07-1974 00:00 8.4 -- 0.9 2023-03-09 15:20:00
2 1974-08-02 00:00:00 Temperatura 13.9 del 01-08-1974 19:00, Mayor que la Máxima 13.7 02-08-1974 00:00 13.9 -- 13.7 2023-03-15 18:41:00
2 1974-08-20 00:00:00 Temperatura 19.0 del 19-08-1974 18:00, Mayor que la Máxima 1.9 20-08-1974 00:00 19.0 -- 1.9 2023-03-17 14:20:00
2 1974-09-30 00:00:00 Temperatura 23.0 del 29-09-1974 19:00, Mayor que la Máxima 18.4 30-09-1974 00:00 23.0 -- 18.4 2023-03-21 17:56:00
2 1975-02-11 00:00:00 Temperatura 26.0 del 10-02-1975 21:00, Mayor que la Máxima 25.3 11-02-1975 00:00 26.0 -- 25.3 2023-04-05 16:06:00
2 1975-05-09 00:00:00 Temperatura 15.0 del 08-05-1975 19:00, Mayor que la Máxima 14.7 09-05-1975 00:00 15.0 -- 14.7 2023-04-12 13:47:00
2 1975-06-18 00:00:00 Temperatura 13.8 del 17-06-1975 21:00, Mayor que la Máxima 13.6 18-06-1975 00:00 13.8 -- 13.6 2023-04-13 17:34:00
2 1975-07-30 00:00:00 Temperatura 12.6 del 29-07-1975 17:00, Mayor que la Máxima 12.5 30-07-1975 00:00 12.6 -- 12.5 2023-04-25 20:10:00
2 2015-12-18 00:00:00 Temperatura 27.0 del 17-12-2015 20:00, Mayor que la Máxima 26.4 18-12-2015 00:00 27.0 -- 26.4 2018-04-24 14:35:00
2 2019-06-15 00:00:00 Temperatura 9.1 del 14-06-2019 15:00, Mayor que la Máxima 7.3 15-06-2019 00:00 9.1 -- 7.3 2019-06-15 00:20:00
2 2021-10-20 00:00:00 Temperatura 32.8 del 19-10-2021 19:00, Mayor que la Máxima 30.9 20-10-2021 00:00 32.8 -- 30.9 2021-10-20 00:20:00
2 2022-07-05 00:00:00 Temperatura 14.3 del 04-07-2022 19:00, Mayor que la Máxima 9.1 05-07-2022 00:00 14.3 -- 9.1 2022-07-05 00:09:00
2 2023-01-29 00:00:00 Temperatura 33.3 del 28-01-2023 21:00, Mayor que la Máxima 32.6 29-01-2023 00:00 33.3 -- 32.6 2023-01-29 00:08:00
2 2023-02-26 00:00:00 Temperatura 28.1 del 25-02-2023 21:00, Mayor que la Máxima 24.6 26-02-2023 00:00 28.1 -- 24.6 2023-02-26 00:35:00
2 2023-03-01 00:00:00 Temperatura 31.0 del 28-02-2023 20:00, Mayor que la Máxima 29.7 01-03-2023 00:00 31.0 -- 29.7 2023-03-01 00:35:00
2 2023-03-15 00:00:00 Temperatura 28.9 del 14-03-2023 20:00, Mayor que la Máxima 23.9 15-03-2023 00:00 28.9 -- 23.9 2023-03-15 00:08:00
2 2023-06-12 00:00:00 Temperatura 7.7 del 11-06-2023 18:00, Mayor que la Máxima 6.1 12-06-2023 00:00 7.7 -- 6.1 2023-06-12 00:08:00
2 2023-08-11 00:00:00 Temperatura 12.1 del 10-08-2023 16:00, Mayor que la Máxima 10.5 11-08-2023 00:00 12.1 -- 10.5 2023-08-11 07:08:00
2 2023-08-12 00:00:00 Temperatura 11.8 del 11-08-2023 20:00, Mayor que la Máxima 9.9 12-08-2023 00:00 11.8 -- 9.9 2023-08-12 00:08:00
Errores del Nivel 132
Informe generado el 17-07-2024 12:54
Requerimiento: RE6001